createdAt,value
2023-03-22T00:01:24.085Z,76.87
2023-03-22T00:03:52.686Z,78.69
2023-03-22T00:06:20.509Z,78.52
2023-03-22T00:08:52.347Z,77.73
2023-03-22T00:11:21.434Z,77.37
2023-03-22T00:13:48.840Z,77.76
2023-03-22T00:16:17.602Z,78.02
2023-03-22T00:18:45.031Z,76.54
2023-03-22T00:21:14.829Z,77.00
2023-03-22T00:23:42.817Z,77.05
2023-03-22T00:26:11.867Z,77.23
2023-03-22T00:28:39.987Z,78.14
2023-03-22T00:31:07.931Z,78.31
2023-03-22T00:33:36.447Z,77.97
2023-03-22T00:36:09.390Z,77.70
2023-03-22T00:38:45.176Z,77.83
2023-03-22T00:41:14.402Z,77.54
2023-03-22T00:43:42.372Z,78.99
2023-03-22T00:46:11.333Z,78.91
2023-03-22T00:48:39.068Z,78.64
2023-03-22T00:51:07.599Z,79.16
2023-03-22T00:53:36.636Z,79.93
2023-03-22T00:56:06.117Z,79.88
2023-03-22T00:58:43.550Z,79.78
2023-03-22T01:01:14.848Z,80.45
2023-03-22T01:03:43.824Z,80.24
2023-03-22T01:06:14.933Z,81.11
2023-03-22T01:08:42.251Z,81.23
2023-03-22T01:11:10.131Z,80.37
2023-03-22T01:13:38.763Z,80.79
2023-03-22T01:16:07.099Z,80.40
2023-03-22T01:18:35.311Z,80.51
2023-03-22T01:21:03.776Z,79.97
2023-03-22T01:23:31.977Z,79.67
2023-03-22T01:26:00.125Z,79.25
2023-03-22T01:28:28.672Z,79.04
2023-03-22T01:31:00.620Z,79.78
2023-03-22T01:33:27.947Z,80.38
2023-03-22T01:35:55.515Z,80.16
2023-03-22T01:38:23.111Z,80.26
2023-03-22T01:40:55.807Z,80.68
2023-03-22T01:43:23.202Z,79.92
2023-03-22T01:45:52.034Z,79.86
2023-03-22T01:48:49.096Z,79.78
2023-03-22T01:51:25.426Z,80.30
2023-03-22T01:54:09.505Z,80.67
2023-03-22T01:56:40.697Z,80.36
2023-03-22T01:59:14.647Z,79.41
2023-03-22T02:02:05.294Z,80.09
2023-03-22T02:04:35.944Z,80.34
2023-03-22T02:07:10.244Z,80.04
2023-03-22T02:09:46.632Z,79.79
2023-03-22T02:12:50.644Z,80.62
2023-03-22T02:15:49.339Z,81.15
2023-03-22T02:18:49.072Z,80.75
2023-03-22T02:21:45.523Z,80.52
2023-03-22T02:24:18.443Z,80.47
2023-03-22T02:26:47.198Z,80.54
2023-03-22T02:29:30.075Z,80.45
2023-03-22T02:32:25.055Z,81.43
2023-03-22T02:35:20.651Z,81.14
2023-03-22T02:37:51.178Z,80.97
2023-03-22T02:40:39.437Z,81.26
2023-03-22T02:43:34.253Z,81.92
2023-03-22T02:46:10.302Z,82.39
2023-03-22T02:48:50.796Z,83.20
2023-03-22T02:51:25.821Z,83.05
2023-03-22T02:53:59.028Z,83.34
2023-03-22T02:56:34.670Z,83.15
2023-03-22T02:59:06.266Z,83.56
2023-03-22T03:01:39.613Z,82.41
2023-03-22T03:04:12.853Z,83.53
2023-03-22T03:06:46.220Z,83.62
2023-03-22T03:09:18.185Z,83.85
2023-03-22T03:11:47.872Z,83.42
2023-03-22T03:14:31.676Z,83.33
2023-03-22T03:17:13.121Z,83.70
2023-03-22T03:20:11.573Z,84.60
2023-03-22T03:22:52.323Z,83.31
2023-03-22T03:25:34.648Z,83.39
2023-03-22T03:28:23.061Z,83.82
2023-03-22T03:30:59.250Z,83.93
2023-03-22T03:33:29.017Z,84.54
2023-03-22T03:36:01.943Z,84.57
2023-03-22T03:38:33.597Z,85.84
2023-03-22T03:41:04.359Z,85.91
2023-03-22T03:43:34.275Z,86.30
2023-03-22T03:46:02.361Z,87.27
2023-03-22T03:48:33.402Z,86.94
2023-03-22T03:51:02.146Z,86.78
2023-03-22T03:53:30.537Z,87.50
2023-03-22T03:55:58.073Z,86.85
2023-03-22T03:58:30.493Z,86.75
2023-03-22T04:00:57.958Z,86.77
2023-03-22T04:03:50.779Z,86.06
2023-03-22T04:06:41.734Z,86.81
2023-03-22T04:09:14.314Z,87.13
2023-03-22T04:11:45.571Z,86.76
2023-03-22T04:14:14.530Z,86.53
2023-03-22T04:16:41.934Z,86.48
2023-03-22T04:19:13.215Z,86.49
2023-03-22T04:21:40.721Z,86.76
2023-03-22T04:24:10.010Z,86.99
2023-03-22T04:26:41.322Z,86.81
2023-03-22T04:29:22.011Z,88.77
2023-03-22T04:31:53.760Z,89.83
2023-03-22T04:34:29.865Z,89.50
2023-03-22T04:37:02.661Z,89.35
2023-03-22T04:39:35.630Z,88.95
2023-03-22T04:42:32.581Z,88.40
2023-03-22T04:45:12.069Z,88.58
2023-03-22T04:47:41.208Z,89.32
2023-03-22T04:50:09.377Z,90.29
2023-03-22T04:53:03.190Z,90.47
2023-03-22T04:55:34.195Z,89.48
2023-03-22T04:58:02.208Z,89.96
2023-03-22T05:00:30.322Z,90.06
2023-03-22T05:02:58.480Z,89.64
2023-03-22T05:05:40.940Z,90.85
2023-03-22T05:08:08.568Z,92.15
2023-03-22T05:10:40.530Z,92.23
2023-03-22T05:13:08.247Z,91.28
2023-03-22T05:15:41.858Z,90.62
2023-03-22T05:18:10.352Z,91.09
2023-03-22T05:20:38.891Z,90.31
2023-03-22T05:23:13.467Z,90.06
2023-03-22T05:25:45.261Z,90.43
2023-03-22T05:28:19.506Z,90.35
2023-03-22T05:30:57.042Z,90.59
2023-03-22T05:33:54.289Z,90.37
2023-03-22T05:36:24.442Z,89.01
2023-03-22T05:39:27.167Z,88.92
2023-03-22T05:41:55.352Z,87.83
2023-03-22T05:44:23.041Z,87.64
2023-03-22T05:47:00.103Z,87.45
2023-03-22T05:49:34.219Z,87.83
2023-03-22T05:52:04.467Z,87.65
2023-03-22T05:54:46.312Z,87.07
2023-03-22T05:57:14.736Z,86.07
2023-03-22T05:59:42.164Z,83.64
2023-03-22T06:02:16.003Z,81.57
2023-03-22T06:04:43.402Z,78.52
2023-03-22T06:07:16.181Z,78.63
2023-03-22T06:09:49.458Z,80.46
2023-03-22T06:12:24.800Z,81.63
2023-03-22T06:15:14.863Z,81.99
2023-03-22T06:17:57.971Z,82.64
2023-03-22T06:20:28.547Z,82.42
2023-03-22T06:23:02.289Z,80.93
2023-03-22T06:25:29.669Z,81.31
2023-03-22T06:27:57.096Z,79.80
2023-03-22T06:30:25.697Z,77.55
2023-03-22T06:33:10.546Z,76.38
2023-03-22T06:35:41.876Z,72.18
2023-03-22T06:38:13.381Z,69.31
2023-03-22T06:40:41.098Z,66.75
2023-03-22T06:43:09.697Z,63.04
2023-03-22T06:45:40.428Z,61.90
2023-03-22T06:48:08.245Z,58.29
2023-03-22T06:50:48.314Z,56.87
2023-03-22T06:53:20.216Z,54.07
2023-03-22T06:55:48.075Z,52.44
2023-03-22T06:58:19.184Z,52.27
2023-03-22T07:00:46.572Z,52.71
2023-03-22T07:03:15.292Z,52.16
2023-03-22T07:06:03.689Z,52.77
2023-03-22T07:08:34.521Z,54.20
2023-03-22T07:11:04.063Z,53.28
2023-03-22T07:13:32.505Z,53.42
2023-03-22T07:16:04.183Z,53.63
2023-03-22T07:18:36.740Z,53.22
2023-03-22T07:21:04.276Z,52.74
2023-03-22T07:23:32.301Z,52.89
2023-03-22T07:26:06.578Z,50.20
2023-03-22T07:28:36.229Z,48.89
2023-03-22T07:31:09.930Z,45.99
2023-03-22T07:33:46.476Z,43.79
2023-03-22T07:36:14.678Z,42.88
2023-03-22T07:38:42.146Z,42.25
2023-03-22T07:41:15.408Z,40.84
2023-03-22T07:44:00.200Z,39.21
2023-03-22T07:46:40.580Z,39.55
2023-03-22T07:49:22.149Z,39.46
2023-03-22T07:51:49.562Z,38.58
2023-03-22T07:54:32.121Z,38.48
2023-03-22T07:57:02.615Z,38.70
2023-03-22T07:59:31.434Z,37.86
2023-03-22T08:01:59.761Z,36.79
2023-03-22T08:04:32.043Z,35.33
2023-03-22T08:07:04.645Z,35.18
2023-03-22T08:09:32.362Z,35.05
2023-03-22T08:11:59.755Z,34.88
2023-03-22T08:14:36.038Z,34.63
2023-03-22T08:17:07.061Z,33.96
2023-03-22T08:19:34.910Z,35.05
2023-03-22T08:22:03.365Z,33.98
2023-03-22T08:24:54.101Z,33.20
2023-03-22T08:27:27.387Z,33.24
2023-03-22T08:29:55.252Z,32.97
2023-03-22T08:32:22.618Z,31.87
2023-03-22T08:34:50.028Z,31.80
2023-03-22T08:37:20.264Z,31.37
2023-03-22T08:39:48.480Z,32.29
2023-03-22T08:42:19.019Z,32.16
2023-03-22T08:44:47.427Z,32.42
2023-03-22T08:47:15.497Z,32.84
2023-03-22T08:49:44.172Z,31.35
2023-03-22T08:52:17.678Z,30.23
2023-03-22T08:54:59.176Z,30.37
2023-03-22T08:57:50.287Z,30.49
2023-03-22T09:00:45.749Z,29.50
2023-03-22T09:03:30.448Z,30.47
2023-03-22T09:05:58.720Z,29.39
2023-03-22T09:08:29.329Z,31.15
2023-03-22T09:11:04.964Z,30.67
2023-03-22T09:13:32.391Z,30.20
2023-03-22T09:16:01.978Z,30.60
2023-03-22T09:18:32.416Z,31.81
2023-03-22T09:21:04.417Z,31.13
2023-03-22T09:23:42.055Z,32.09
2023-03-22T09:26:11.229Z,30.47
2023-03-22T09:28:39.306Z,30.80
2023-03-22T09:31:10.383Z,29.54
2023-03-22T09:33:41.392Z,29.74
2023-03-22T09:36:11.953Z,29.70
2023-03-22T09:38:41.372Z,31.08
2023-03-22T09:41:14.852Z,31.78
2023-03-22T09:43:57.244Z,32.25
2023-03-22T09:46:36.950Z,32.67
2023-03-22T09:49:50.473Z,32.12
2023-03-22T09:52:20.043Z,31.18
2023-03-22T09:54:47.621Z,29.04
2023-03-22T09:57:37.442Z,31.25
2023-03-22T10:00:52.534Z,31.32
2023-03-22T10:03:34.435Z,31.76
2023-03-22T10:06:18.963Z,32.13
2023-03-22T10:09:15.765Z,32.10
2023-03-22T10:11:52.353Z,30.88
2023-03-22T10:14:45.440Z,30.24
2023-03-22T10:17:17.415Z,30.86
2023-03-22T10:19:57.796Z,31.33
2023-03-22T10:22:30.931Z,31.46
2023-03-22T10:25:00.483Z,31.30
2023-03-22T10:27:30.284Z,30.31
2023-03-22T10:30:24.481Z,31.83
2023-03-22T10:33:03.332Z,31.48
2023-03-22T10:35:32.091Z,31.94
2023-03-22T10:38:03.813Z,31.17
2023-03-22T10:40:35.671Z,30.85
2023-03-22T10:43:28.117Z,31.28
2023-03-22T10:45:56.928Z,31.44
2023-03-22T10:48:35.332Z,31.06
2023-03-22T10:51:04.218Z,31.78
2023-03-22T10:53:40.867Z,31.95
2023-03-22T10:56:18.772Z,32.71
2023-03-22T10:58:47.938Z,31.42
2023-03-22T11:01:25.512Z,32.29
2023-03-22T11:04:08.042Z,31.79
2023-03-22T11:06:40.897Z,30.99
2023-03-22T11:09:15.815Z,32.90
2023-03-22T11:11:55.723Z,33.44
2023-03-22T11:14:37.053Z,32.29
2023-03-22T11:17:08.329Z,32.53
2023-03-22T11:19:42.082Z,33.09
2023-03-22T11:22:31.990Z,31.60
2023-03-22T11:25:00.875Z,31.29
2023-03-22T11:27:30.611Z,30.19
2023-03-22T11:30:20.119Z,32.22
2023-03-22T11:32:48.935Z,31.54
2023-03-22T11:35:27.572Z,30.55
2023-03-22T11:37:56.322Z,31.34
2023-03-22T11:40:29.281Z,32.56
2023-03-22T11:43:11.268Z,32.62
2023-03-22T11:45:42.862Z,32.92
2023-03-22T11:48:14.849Z,30.98
2023-03-22T11:50:44.578Z,32.79
2023-03-22T11:53:24.550Z,32.82
2023-03-22T11:55:55.705Z,32.80
2023-03-22T11:58:24.036Z,32.29
2023-03-22T12:00:53.636Z,32.55
2023-03-22T12:03:25.026Z,31.90
2023-03-22T12:05:53.358Z,31.54
2023-03-22T12:08:36.007Z,32.23
2023-03-22T12:11:11.038Z,33.34
2023-03-22T12:13:46.701Z,33.37
2023-03-22T12:16:22.977Z,32.52
2023-03-22T12:19:06.910Z,33.08
2023-03-22T12:21:34.826Z,33.01
2023-03-22T12:24:04.466Z,33.60
2023-03-22T12:26:33.655Z,32.68
2023-03-22T12:29:18.859Z,33.65
2023-03-22T12:32:00.044Z,32.61
2023-03-22T12:34:41.416Z,33.78
2023-03-22T12:37:15.052Z,33.13
2023-03-22T12:40:01.991Z,34.01
2023-03-22T12:42:47.550Z,33.46
2023-03-22T12:45:23.397Z,33.35
2023-03-22T12:48:23.744Z,34.30
2023-03-22T12:50:57.130Z,33.00
2023-03-22T12:53:42.616Z,32.17
2023-03-22T12:56:52.382Z,33.53
2023-03-22T12:59:28.641Z,35.30
2023-03-22T13:02:23.317Z,33.68
2023-03-22T13:04:55.865Z,34.20
2023-03-22T13:07:47.655Z,33.01
2023-03-22T13:10:30.066Z,32.03
2023-03-22T13:13:09.666Z,33.24
2023-03-22T13:15:42.111Z,32.85
2023-03-22T13:18:50.043Z,32.51
2023-03-22T13:21:22.806Z,32.37
2023-03-22T13:24:02.370Z,32.63
2023-03-22T13:26:55.244Z,33.37
2023-03-22T13:29:38.287Z,32.81
2023-03-22T13:32:29.919Z,32.46
2023-03-22T13:34:57.677Z,32.93
2023-03-22T13:37:30.234Z,33.13
2023-03-22T13:40:02.177Z,32.01
2023-03-22T13:42:38.775Z,32.69
2023-03-22T13:45:31.589Z,33.13
2023-03-22T13:48:12.418Z,32.54
2023-03-22T13:50:40.377Z,33.55
2023-03-22T13:53:21.548Z,33.45
2023-03-22T13:55:48.919Z,33.54
2023-03-22T13:58:38.198Z,33.84
2023-03-22T14:01:14.996Z,32.80
2023-03-22T14:03:46.149Z,32.18
2023-03-22T14:06:26.016Z,33.51
2023-03-22T14:09:02.063Z,33.18
2023-03-22T14:11:39.620Z,32.21
2023-03-22T14:14:12.501Z,31.89
2023-03-22T14:17:00.626Z,32.46
2023-03-22T14:19:32.765Z,31.84
